METAR Data
IDs: Format: Raw Decoded Include TAF

Data at: 1445 UTC 25 Jan 2020

METAR for:KIAD (Washington/Dulles In, VA, US)
Text:KIAD 251352Z 28004KT 10SM BKN009 OVC012 07/06 A2987 RMK AO2 RAE1256 SLP115 P0000 T00720056 $
Temperature: 7.2°C ( 45°F)
Dewpoint: 5.6°C ( 42°F) [RH = 90%]
Pressure (altimeter):29.87 inches Hg (1011.6 mb) [Sea level pressure: 1011.5 mb]
Winds:from the W (280 degrees) at 5 MPH (4 knots; 2.1 m/s)
Visibility:10 or more sm (16+ km)
Ceiling:900 feet AGL
Clouds: broken clouds at 900 feet AGL, overcast cloud deck at 1200 feet AGL
QC Flag:SOME DATA ABOVE MAY BE INACCURATE!!!"$" is an indication the sensor requires maintenance.